sensor_id;sensor_type;location;lat;lon;timestamp;pressure;altitude;pressure_sealevel;temperature;humidity
59767;BME280;46248;58.364;25.582;2022-12-28T00:02:59;99863.78;;;0.62;100.00
59767;BME280;46248;58.364;25.582;2022-12-28T00:06:23;99861.34;;;0.58;100.00
59767;BME280;46248;58.364;25.582;2022-12-28T00:09:45;99869.00;;;0.59;100.00
59767;BME280;46248;58.364;25.582;2022-12-28T00:13:07;99864.75;;;0.57;100.00
59767;BME280;46248;58.364;25.582;2022-12-28T00:16:30;99869.00;;;0.59;100.00
59767;BME280;46248;58.364;25.582;2022-12-28T00:19:54;99872.53;;;0.55;100.00
59767;BME280;46248;58.364;25.582;2022-12-28T00:23:18;99879.44;;;0.55;100.00
59767;BME280;46248;58.364;25.582;2022-12-28T00:26:40;99871.81;;;0.49;100.00
59767;BME280;46248;58.364;25.582;2022-12-28T00:30:03;99890.56;;;0.55;100.00
59767;BME280;46248;58.364;25.582;2022-12-28T00:33:25;99888.00;;;0.54;100.00
59767;BME280;46248;58.364;25.582;2022-12-28T00:36:50;99892.38;;;0.52;100.00
59767;BME280;46248;58.364;25.582;2022-12-28T00:40:30;99900.19;;;0.47;100.00
59767;BME280;46248;58.364;25.582;2022-12-28T00:43:52;99898.50;;;0.44;100.00
59767;BME280;46248;58.364;25.582;2022-12-28T00:47:14;99907.13;;;0.43;100.00
59767;BME280;46248;58.364;25.582;2022-12-28T00:50:36;99897.78;;;0.38;100.00
59767;BME280;46248;58.364;25.582;2022-12-28T00:53:59;99903.78;;;0.38;100.00
59767;BME280;46248;58.364;25.582;2022-12-28T00:57:22;99919.22;;;0.40;100.00
59767;BME280;46248;58.364;25.582;2022-12-28T01:00:44;99919.28;;;0.37;100.00
59767;BME280;46248;58.364;25.582;2022-12-28T01:04:06;99924.44;;;0.35;100.00
59767;BME280;46248;58.364;25.582;2022-12-28T01:07:28;99931.38;;;0.32;100.00
59767;BME280;46248;58.364;25.582;2022-12-28T01:10:51;99925.41;;;0.30;100.00
59767;BME280;46248;58.364;25.582;2022-12-28T01:14:13;99925.41;;;0.30;100.00
59767;BME280;46248;58.364;25.582;2022-12-28T01:17:35;99937.47;;;0.28;100.00
59767;BME280;46248;58.364;25.582;2022-12-28T01:20:57;99933.22;;;0.25;100.00
59767;BME280;46248;58.364;25.582;2022-12-28T01:24:19;99946.91;;;0.27;100.00
59767;BME280;46248;58.364;25.582;2022-12-28T01:27:42;99936.66;;;0.26;100.00
59767;BME280;46248;58.364;25.582;2022-12-28T01:31:06;99929.03;;;0.19;100.00
59767;BME280;46248;58.364;25.582;2022-12-28T01:34:28;99935.84;;;0.22;100.00
59767;BME280;46248;58.364;25.582;2022-12-28T01:37:49;99949.50;;;0.26;100.00
59767;BME280;46248;58.364;25.582;2022-12-28T01:41:15;99953.88;;;0.22;100.00
59767;BME280;46248;58.364;25.582;2022-12-28T01:44:42;99949.59;;;0.21;100.00
59767;BME280;46248;58.364;25.582;2022-12-28T01:48:08;99955.50;;;0.26;100.00
59767;BME280;46248;58.364;25.582;2022-12-28T01:51:42;99959.81;;;0.26;100.00
59767;BME280;46248;58.364;25.582;2022-12-28T01:55:09;99968.38;;;0.28;100.00
59767;BME280;46248;58.364;25.582;2022-12-28T01:58:33;99971.81;;;0.27;100.00
59767;BME280;46248;58.364;25.582;2022-12-28T02:01:57;99960.72;;;0.23;100.00
59767;BME280;46248;58.364;25.582;2022-12-28T02:05:24;99971.75;;;0.30;100.00
59767;BME280;46248;58.364;25.582;2022-12-28T02:08:52;99980.31;;;0.30;100.00
59767;BME280;46248;58.364;25.582;2022-12-28T02:12:16;99973.47;;;0.31;100.00
59767;BME280;46248;58.364;25.582;2022-12-28T02:15:38;99978.66;;;0.28;100.00
59767;BME280;46248;58.364;25.582;2022-12-28T02:19:02;99975.28;;;0.24;100.00
59767;BME280;46248;58.364;25.582;2022-12-28T02:22:48;99981.34;;;0.21;100.00
59767;BME280;46248;58.364;25.582;2022-12-28T02:26:36;99978.72;;;0.25;100.00
59767;BME280;46248;58.364;25.582;2022-12-28T02:30:05;99983.94;;;0.21;100.00
59767;BME280;46248;58.364;25.582;2022-12-28T02:33:33;99980.53;;;0.18;100.00
59767;BME280;46248;58.364;25.582;2022-12-28T02:37:00;99980.56;;;0.16;100.00
59767;BME280;46248;58.364;25.582;2022-12-28T02:40:26;99983.19;;;0.13;100.00
59767;BME280;46248;58.364;25.582;2022-12-28T02:43:50;99993.56;;;0.10;100.00
59767;BME280;46248;58.364;25.582;2022-12-28T02:47:15;99986.78;;;0.05;100.00
59767;BME280;46248;58.364;25.582;2022-12-28T02:51:03;99986.00;;;-0.01;100.00
59767;BME280;46248;58.364;25.582;2022-12-28T02:54:50;99998.88;;;-0.01;100.00
59767;BME280;46248;58.364;25.582;2022-12-28T02:58:58;100005.75;;;-0.01;100.00
59767;BME280;46248;58.364;25.582;2022-12-28T03:02:41;100014.34;;;-0.02;100.00
59767;BME280;46248;58.364;25.582;2022-12-28T03:06:11;100006.69;;;-0.07;100.00
59767;BME280;46248;58.364;25.582;2022-12-28T03:09:58;100005.88;;;-0.09;100.00
59767;BME280;46248;58.364;25.582;2022-12-28T03:13:25;100022.13;;;-0.07;100.00
59767;BME280;46248;58.364;25.582;2022-12-28T03:17:07;100022.22;;;-0.13;100.00
59767;BME280;46248;58.364;25.582;2022-12-28T03:20:50;100032.47;;;-0.10;100.00
59767;BME280;46248;58.364;25.582;2022-12-28T03:24:32;100027.31;;;-0.10;100.00
59767;BME280;46248;58.364;25.582;2022-12-28T03:28:16;100027.31;;;-0.10;100.00
59767;BME280;46248;58.364;25.582;2022-12-28T03:31:57;100035.00;;;-0.07;100.00
59767;BME280;46248;58.364;25.582;2022-12-28T03:35:21;100035.84;;;-0.05;100.00
59767;BME280;46248;58.364;25.582;2022-12-28T03:38:49;100032.41;;;-0.05;100.00
59767;BME280;46248;58.364;25.582;2022-12-28T03:42:15;100035.00;;;-0.05;100.00
59767;BME280;46248;58.364;25.582;2022-12-28T03:46:01;100036.63;;;-0.01;100.00
59767;BME280;46248;58.364;25.582;2022-12-28T03:49:26;100027.22;;;-0.04;100.00
59767;BME280;46248;58.364;25.582;2022-12-28T03:52:50;100026.34;;;-0.01;100.00
59767;BME280;46248;58.364;25.582;2022-12-28T03:56:15;100027.13;;;0.04;100.00
59767;BME280;46248;58.364;25.582;2022-12-28T03:59:37;100031.44;;;0.04;100.00
59767;BME280;46248;58.364;25.582;2022-12-28T04:02:59;100019.53;;;-0.05;100.00
59767;BME280;46248;58.364;25.582;2022-12-28T04:06:20;100041.69;;;0.05;100.00
59767;BME280;46248;58.364;25.582;2022-12-28T04:09:42;100040.84;;;0.05;100.00
59767;BME280;46248;58.364;25.582;2022-12-28T04:13:05;100046.03;;;0.03;100.00
59767;BME280;46248;58.364;25.582;2022-12-28T04:16:27;100046.03;;;0.03;100.00
59767;BME280;46248;58.364;25.582;2022-12-28T04:19:49;100024.69;;;-0.07;100.00
59767;BME280;46248;58.364;25.582;2022-12-28T04:23:11;100047.78;;;-0.01;99.78
59767;BME280;46248;58.364;25.582;2022-12-28T04:26:32;100050.34;;;-0.01;99.57
59767;BME280;46248;58.364;25.582;2022-12-28T04:29:56;100051.22;;;0.00;99.59
59767;BME280;46248;58.364;25.582;2022-12-28T04:33:17;100041.78;;;-0.01;99.45
59767;BME280;46248;58.364;25.582;2022-12-28T04:36:39;100047.88;;;-0.07;99.21
59767;BME280;46248;58.364;25.582;2022-12-28T04:40:02;100033.41;;;-0.14;99.09
59767;BME280;46248;58.364;25.582;2022-12-28T04:43:24;100045.34;;;-0.10;99.39
59767;BME280;46248;58.364;25.582;2022-12-28T04:46:47;100047.00;;;-0.06;99.17
59767;BME280;46248;58.364;25.582;2022-12-28T04:50:09;100038.50;;;-0.11;99.12
59767;BME280;46248;58.364;25.582;2022-12-28T04:53:35;100049.69;;;-0.12;98.63
59767;BME280;46248;58.364;25.582;2022-12-28T04:56:57;100048.94;;;-0.21;98.56
59767;BME280;46248;58.364;25.582;2022-12-28T05:00:19;100058.47;;;-0.28;98.26
59767;BME280;46248;58.364;25.582;2022-12-28T05:03:44;100054.38;;;-0.41;98.01
59767;BME280;46248;58.364;25.582;2022-12-28T05:07:14;100068.13;;;-0.44;98.07
59767;BME280;46248;58.364;25.582;2022-12-28T05:10:36;100064.00;;;-0.54;98.20
59767;BME280;46248;58.364;25.582;2022-12-28T05:13:58;100064.03;;;-0.59;98.01
59767;BME280;46248;58.364;25.582;2022-12-28T05:17:20;100067.56;;;-0.66;97.68
59767;BME280;46248;58.364;25.582;2022-12-28T05:20:43;100064.25;;;-0.74;98.17
59767;BME280;46248;58.364;25.582;2022-12-28T05:24:06;100076.28;;;-0.79;97.97
59767;BME280;46248;58.364;25.582;2022-12-28T05:27:28;100074.66;;;-0.86;98.03
59767;BME280;46248;58.364;25.582;2022-12-28T05:30:50;100079.03;;;-0.93;97.94
59767;BME280;46248;58.364;25.582;2022-12-28T05:34:12;100074.88;;;-1.05;97.69
59767;BME280;46248;58.364;25.582;2022-12-28T05:37:38;100081.75;;;-1.07;98.00
59767;BME280;46248;58.364;25.582;2022-12-28T05:41:04;100085.22;;;-1.12;98.00
59767;BME280;46248;58.364;25.582;2022-12-28T05:44:26;100083.63;;;-1.24;98.25
59767;BME280;46248;58.364;25.582;2022-12-28T05:47:48;100086.22;;;-1.26;98.59
59767;BME280;46248;58.364;25.582;2022-12-28T05:51:12;100093.13;;;-1.31;98.33
59767;BME280;46248;58.364;25.582;2022-12-28T05:54:35;100088.00;;;-1.34;98.30
59767;BME280;46248;58.364;25.582;2022-12-28T05:57:56;100079.63;;;-1.48;98.29
59767;BME280;46248;58.364;25.582;2022-12-28T06:01:21;100095.84;;;-1.45;98.19
59767;BME280;46248;58.364;25.582;2022-12-28T06:04:43;100096.75;;;-1.50;98.25
59767;BME280;46248;58.364;25.582;2022-12-28T06:08:04;100083.16;;;-1.63;98.56
59767;BME280;46248;58.364;25.582;2022-12-28T06:11:28;100101.09;;;-1.62;98.65
59767;BME280;46248;58.364;25.582;2022-12-28T06:14:50;100104.59;;;-1.70;99.18
59767;BME280;46248;58.364;25.582;2022-12-28T06:18:12;100104.63;;;-1.73;99.13
59767;BME280;46248;58.364;25.582;2022-12-28T06:21:36;100106.44;;;-1.85;99.37
59767;BME280;46248;58.364;25.582;2022-12-28T06:24:58;100125.19;;;-1.79;99.26
59767;BME280;46248;58.364;25.582;2022-12-28T06:28:22;100120.97;;;-1.83;99.20
59767;BME280;46248;58.364;25.582;2022-12-28T06:31:44;100125.28;;;-1.87;99.03
59767;BME280;46248;58.364;25.582;2022-12-28T06:35:08;100121.03;;;-1.94;99.06
59767;BME280;46248;58.364;25.582;2022-12-28T06:38:31;100131.31;;;-1.97;99.33
59767;BME280;46248;58.364;25.582;2022-12-28T06:41:54;100126.22;;;-2.02;99.64
59767;BME280;46248;58.364;25.582;2022-12-28T06:45:17;100120.25;;;-2.07;99.35
59767;BME280;46248;58.364;25.582;2022-12-28T06:48:40;100122.88;;;-2.15;99.65
59767;BME280;46248;58.364;25.582;2022-12-28T06:52:02;100133.97;;;-2.13;99.86
59767;BME280;46248;58.364;25.582;2022-12-28T06:55:24;100140.81;;;-2.13;100.00
59767;BME280;46248;58.364;25.582;2022-12-28T06:58:47;100123.78;;;-2.23;100.00
59767;BME280;46248;58.364;25.582;2022-12-28T07:02:11;100140.81;;;-2.16;100.00
59767;BME280;46248;58.364;25.582;2022-12-28T07:05:33;100139.16;;;-2.22;100.00
59767;BME280;46248;58.364;25.582;2022-12-28T07:08:58;100130.59;;;-2.27;99.95
59767;BME280;46248;58.364;25.582;2022-12-28T07:12:20;100137.47;;;-2.27;100.00
59767;BME280;46248;58.364;25.582;2022-12-28T07:15:42;100133.19;;;-2.30;100.00
59767;BME280;46248;58.364;25.582;2022-12-28T07:19:05;100132.34;;;-2.34;100.00
59767;BME280;46248;58.364;25.582;2022-12-28T07:22:27;100143.47;;;-2.36;100.00
59767;BME280;46248;58.364;25.582;2022-12-28T07:25:49;100144.38;;;-2.42;99.84
59767;BME280;46248;58.364;25.582;2022-12-28T07:29:11;100139.28;;;-2.45;99.82
59767;BME280;46248;58.364;25.582;2022-12-28T07:32:35;100140.13;;;-2.47;100.00
59767;BME280;46248;58.364;25.582;2022-12-28T07:35:58;100140.97;;;-2.48;100.00
59767;BME280;46248;58.364;25.582;2022-12-28T07:39:20;100127.34;;;-2.61;99.90
59767;BME280;46248;58.364;25.582;2022-12-28T07:42:42;100146.13;;;-2.55;100.00
59767;BME280;46248;58.364;25.582;2022-12-28T07:46:06;100125.69;;;-2.65;100.00
59767;BME280;46248;58.364;25.582;2022-12-28T07:49:28;100129.94;;;-2.64;100.00
59767;BME280;46248;58.364;25.582;2022-12-28T07:52:51;100130.81;;;-2.65;100.00
59767;BME280;46248;58.364;25.582;2022-12-28T07:56:14;100151.25;;;-2.58;100.00
59767;BME280;46248;58.364;25.582;2022-12-28T07:59:36;100145.31;;;-2.61;100.00
59767;BME280;46248;58.364;25.582;2022-12-28T08:02:57;100154.72;;;-2.57;100.00
59767;BME280;46248;58.364;25.582;2022-12-28T08:06:20;100155.53;;;-2.58;100.00
59767;BME280;46248;58.364;25.582;2022-12-28T08:09:44;100158.09;;;-2.58;100.00
59767;BME280;46248;58.364;25.582;2022-12-28T08:13:06;100155.56;;;-2.64;100.00
59767;BME280;46248;58.364;25.582;2022-12-28T08:16:29;100158.94;;;-2.58;100.00
59767;BME280;46248;58.364;25.582;2022-12-28T08:19:52;100170.06;;;-2.56;100.00
59767;BME280;46248;58.364;25.582;2022-12-28T08:23:17;100158.13;;;-2.63;100.00
59767;BME280;46248;58.364;25.582;2022-12-28T08:26:40;100185.44;;;-2.51;100.00
59767;BME280;46248;58.364;25.582;2022-12-28T08:30:04;100187.13;;;-2.50;100.00
59767;BME280;46248;58.364;25.582;2022-12-28T08:33:26;100179.44;;;-2.50;100.00
59767;BME280;46248;58.364;25.582;2022-12-28T08:36:48;100188.84;;;-2.49;100.00
59767;BME280;46248;58.364;25.582;2022-12-28T08:40:11;100180.31;;;-2.48;100.00
59767;BME280;46248;58.364;25.582;2022-12-28T08:43:34;100183.69;;;-2.46;100.00
59767;BME280;46248;58.364;25.582;2022-12-28T08:46:55;100192.22;;;-2.41;100.00
59767;BME280;46248;58.364;25.582;2022-12-28T08:50:17;100194.78;;;-2.38;100.00
59767;BME280;46248;58.364;25.582;2022-12-28T08:53:44;100192.22;;;-2.35;100.00
59767;BME280;46248;58.364;25.582;2022-12-28T08:57:06;100187.06;;;-2.33;100.00
59767;BME280;46248;58.364;25.582;2022-12-28T09:00:29;100180.25;;;-2.33;100.00
59767;BME280;46248;58.364;25.582;2022-12-28T09:03:53;100192.16;;;-2.22;100.00
59767;BME280;46248;58.364;25.582;2022-12-28T09:07:16;100189.56;;;-2.19;100.00
59767;BME280;46248;58.364;25.582;2022-12-28T09:10:38;100181.03;;;-2.17;100.00
59767;BME280;46248;58.364;25.582;2022-12-28T09:14:00;100193.81;;;-2.11;100.00
59767;BME280;46248;58.364;25.582;2022-12-28T09:17:24;100189.50;;;-2.04;100.00
59767;BME280;46248;58.364;25.582;2022-12-28T09:20:45;100194.59;;;-1.98;100.00
59767;BME280;46248;58.364;25.582;2022-12-28T09:24:08;100201.44;;;-1.95;100.00
59767;BME280;46248;58.364;25.582;2022-12-28T09:27:30;100196.31;;;-1.95;100.00
59767;BME280;46248;58.364;25.582;2022-12-28T09:30:52;100203.97;;;-1.92;100.00
59767;BME280;46248;58.364;25.582;2022-12-28T09:34:15;100207.34;;;-1.86;99.71
59767;BME280;46248;58.364;25.582;2022-12-28T09:37:57;100203.06;;;-1.85;99.44
59767;BME280;46248;58.364;25.582;2022-12-28T09:41:24;100213.28;;;-1.76;99.30
59767;BME280;46248;58.364;25.582;2022-12-28T09:44:51;100210.72;;;-1.71;99.15
59767;BME280;46248;58.364;25.582;2022-12-28T09:48:17;100212.41;;;-1.70;99.04
59767;BME280;46248;58.364;25.582;2022-12-28T09:51:48;100227.75;;;-1.59;99.31
59767;BME280;46248;58.364;25.582;2022-12-28T09:55:15;100230.28;;;-1.55;99.19
59767;BME280;46248;58.364;25.582;2022-12-28T09:58:39;100207.22;;;-1.61;98.67
59767;BME280;46248;58.364;25.582;2022-12-28T10:02:16;100217.41;;;-1.47;98.75
59767;BME280;46248;58.364;25.582;2022-12-28T10:05:38;100229.31;;;-1.39;98.81
59767;BME280;46248;58.364;25.582;2022-12-28T10:09:04;100227.59;;;-1.35;98.55
59767;BME280;46248;58.364;25.582;2022-12-28T10:12:31;100229.25;;;-1.29;98.93
59767;BME280;46248;58.364;25.582;2022-12-28T10:15:53;100227.47;;;-1.24;98.45
59767;BME280;46248;58.364;25.582;2022-12-28T10:19:17;100227.47;;;-1.24;98.85
59767;BME280;46248;58.364;25.582;2022-12-28T10:22:40;100212.13;;;-1.30;98.41
59767;BME280;46248;58.364;25.582;2022-12-28T10:26:15;100234.31;;;-1.17;98.79
59767;BME280;46248;58.364;25.582;2022-12-28T10:29:40;100231.69;;;-1.16;99.16
59767;BME280;46248;58.364;25.582;2022-12-28T10:33:03;100231.69;;;-1.14;98.83
59767;BME280;46248;58.364;25.582;2022-12-28T10:36:33;100228.25;;;-1.08;98.74
59767;BME280;46248;58.364;25.582;2022-12-28T10:39:57;100232.50;;;-1.07;98.69
59767;BME280;46248;58.364;25.582;2022-12-28T10:43:22;100224.81;;;-1.09;98.88
59767;BME280;46248;58.364;25.582;2022-12-28T10:46:55;100225.63;;;-1.05;98.90
59767;BME280;46248;58.364;25.582;2022-12-28T10:50:48;100230.75;;;-1.04;99.47
59767;BME280;46248;58.364;25.582;2022-12-28T10:54:23;100225.63;;;-1.02;99.66
59767;BME280;46248;58.364;25.582;2022-12-28T10:57:51;100228.97;;;-0.97;99.57
59767;BME280;46248;58.364;25.582;2022-12-28T11:01:34;100219.50;;;-0.89;99.58
59767;BME280;46248;58.364;25.582;2022-12-28T11:04:58;100225.47;;;-0.88;98.86
59767;BME280;46248;58.364;25.582;2022-12-28T11:08:21;100223.78;;;-0.89;98.54
59767;BME280;46248;58.364;25.582;2022-12-28T11:11:44;100224.63;;;-0.87;98.14
59767;BME280;46248;58.364;25.582;2022-12-28T11:15:08;100213.50;;;-0.89;98.16
59767;BME280;46248;58.364;25.582;2022-12-28T11:18:35;100221.19;;;-0.88;98.22
59767;BME280;46248;58.364;25.582;2022-12-28T11:21:57;100217.72;;;-0.85;97.53
59767;BME280;46248;58.364;25.582;2022-12-28T11:25:23;100217.72;;;-0.85;97.15
59767;BME280;46248;58.364;25.582;2022-12-28T11:28:49;100171.78;;;-1.14;96.91
59767;BME280;46248;58.364;25.582;2022-12-28T11:32:15;100217.72;;;-0.85;96.14
59767;BME280;46248;58.364;25.582;2022-12-28T11:35:42;100217.75;;;-0.87;96.26
59767;BME280;46248;58.364;25.582;2022-12-28T11:39:29;100221.22;;;-0.89;96.34
59767;BME280;46248;58.364;25.582;2022-12-28T11:42:54;100223.84;;;-0.96;95.83
59767;BME280;46248;58.364;25.582;2022-12-28T11:46:41;100215.28;;;-0.98;96.02
59767;BME280;46248;58.364;25.582;2022-12-28T11:54:35;100221.38;;;-1.08;95.55
59767;BME280;46248;58.364;25.582;2022-12-28T11:57:57;100205.13;;;-1.13;95.30
59767;BME280;46248;58.364;25.582;2022-12-28T12:01:41;100216.22;;;-1.09;95.80
59767;BME280;46248;58.364;25.582;2022-12-28T12:08:59;100212.03;;;-1.17;95.92
59767;BME280;46248;58.364;25.582;2022-12-28T12:12:36;100234.28;;;-1.14;95.93
59767;BME280;46248;58.364;25.582;2022-12-28T12:16:15;100216.38;;;-1.23;96.74
59767;BME280;46248;58.364;25.582;2022-12-28T12:19:42;100220.59;;;-1.19;97.02
59767;BME280;46248;58.364;25.582;2022-12-28T12:23:16;100231.72;;;-1.19;97.04
59767;BME280;46248;58.364;25.582;2022-12-28T12:26:45;100237.75;;;-1.20;96.92
59767;BME280;46248;58.364;25.582;2022-12-28T12:30:14;100236.91;;;-1.23;97.38
59767;BME280;46248;58.364;25.582;2022-12-28T12:33:41;100233.53;;;-1.27;98.31
59767;BME280;46248;58.364;25.582;2022-12-28T12:37:27;100240.31;;;-1.21;98.67
59767;BME280;46248;58.364;25.582;2022-12-28T12:41:06;100237.75;;;-1.23;99.23
59767;BME280;46248;58.364;25.582;2022-12-28T12:44:38;100241.97;;;-1.14;99.73
59767;BME280;46248;58.364;25.582;2022-12-28T12:48:26;100244.50;;;-1.09;99.91
59767;BME280;46248;58.364;25.582;2022-12-28T12:51:58;100235.91;;;-1.07;100.00
59767;BME280;46248;58.364;25.582;2022-12-28T12:55:36;100250.41;;;-0.98;100.00
59767;BME280;46248;58.364;25.582;2022-12-28T12:59:22;100232.44;;;-1.00;99.83
59767;BME280;46248;58.364;25.582;2022-12-28T13:03:14;100252.97;;;-0.97;99.66
59767;BME280;46248;58.364;25.582;2022-12-28T13:06:38;100245.31;;;-1.03;99.49
59767;BME280;46248;58.364;25.582;2022-12-28T13:10:03;100247.91;;;-1.03;99.68
59767;BME280;46248;58.364;25.582;2022-12-28T13:13:28;100239.34;;;-1.06;99.29
59767;BME280;46248;58.364;25.582;2022-12-28T13:16:53;100246.19;;;-1.07;99.35
59767;BME280;46248;58.364;25.582;2022-12-28T13:20:18;100238.53;;;-1.11;99.88
59767;BME280;46248;58.364;25.582;2022-12-28T13:23:43;100241.13;;;-1.14;99.58
59767;BME280;46248;58.364;25.582;2022-12-28T13:27:16;100240.28;;;-1.18;99.81
59767;BME280;46248;58.364;25.582;2022-12-28T13:30:39;100234.34;;;-1.23;99.97
59767;BME280;46248;58.364;25.582;2022-12-28T13:34:03;100245.50;;;-1.29;99.49
59767;BME280;46248;58.364;25.582;2022-12-28T13:37:25;100248.09;;;-1.33;99.81
59767;BME280;46248;58.364;25.582;2022-12-28T13:40:51;100247.31;;;-1.39;100.00
59767;BME280;46248;58.364;25.582;2022-12-28T13:44:27;100238.78;;;-1.44;100.00
59767;BME280;46248;58.364;25.582;2022-12-28T13:47:51;100244.81;;;-1.48;99.84
59767;BME280;46248;58.364;25.582;2022-12-28T13:51:16;100245.66;;;-1.50;100.00
59767;BME280;46248;58.364;25.582;2022-12-28T13:54:44;100245.69;;;-1.55;100.00
59767;BME280;46248;58.364;25.582;2022-12-28T13:58:12;100243.13;;;-1.58;100.00
59767;BME280;46248;58.364;25.582;2022-12-28T14:01:37;100232.91;;;-1.64;100.00
59767;BME280;46248;58.364;25.582;2022-12-28T14:05:01;100235.50;;;-1.66;100.00
59767;BME280;46248;58.364;25.582;2022-12-28T14:08:22;100235.53;;;-1.72;100.00
59767;BME280;46248;58.364;25.582;2022-12-28T14:11:45;100244.06;;;-1.71;100.00
59767;BME280;46248;58.364;25.582;2022-12-28T14:15:10;100221.03;;;-1.83;100.00
59767;BME280;46248;58.364;25.582;2022-12-28T14:18:32;100235.56;;;-1.81;100.00
59767;BME280;46248;58.364;25.582;2022-12-28T14:21:55;100234.75;;;-1.86;100.00
59767;BME280;46248;58.364;25.582;2022-12-28T14:25:18;100215.97;;;-2.00;100.00
59767;BME280;46248;58.364;25.582;2022-12-28T14:28:44;100224.53;;;-1.98;100.00
59767;BME280;46248;58.364;25.582;2022-12-28T14:32:13;100221.97;;;-2.03;100.00
59767;BME280;46248;58.364;25.582;2022-12-28T14:35:36;100218.59;;;-2.07;100.00
59767;BME280;46248;58.364;25.582;2022-12-28T14:39:05;100204.97;;;-2.19;100.00
59767;BME280;46248;58.364;25.582;2022-12-28T14:42:27;100193.88;;;-2.27;100.00
59767;BME280;46248;58.364;25.582;2022-12-28T14:45:50;100231.44;;;-2.16;100.00
59767;BME280;46248;58.364;25.582;2022-12-28T14:49:33;100216.97;;;-2.23;100.00
59767;BME280;46248;58.364;25.582;2022-12-28T14:53:06;100222.94;;;-2.22;100.00
59767;BME280;46248;58.364;25.582;2022-12-28T14:56:32;100217.81;;;-2.22;100.00
59767;BME280;46248;58.364;25.582;2022-12-28T14:59:58;100219.50;;;-2.21;100.00
59767;BME280;46248;58.364;25.582;2022-12-28T15:03:23;100218.66;;;-2.22;100.00
59767;BME280;46248;58.364;25.582;2022-12-28T15:06:49;100221.19;;;-2.19;100.00
59767;BME280;46248;58.364;25.582;2022-12-28T15:10:11;100220.34;;;-2.16;100.00
59767;BME280;46248;58.364;25.582;2022-12-28T15:13:33;100228.03;;;-2.15;100.00
59767;BME280;46248;58.364;25.582;2022-12-28T15:16:55;100224.59;;;-2.12;100.00
59767;BME280;46248;58.364;25.582;2022-12-28T15:20:17;100216.03;;;-2.13;100.00
59767;BME280;46248;58.364;25.582;2022-12-28T15:23:41;100231.41;;;-2.05;100.00
59767;BME280;46248;58.364;25.582;2022-12-28T15:27:03;100212.63;;;-2.09;100.00
59767;BME280;46248;58.364;25.582;2022-12-28T15:30:25;100223.66;;;-1.97;100.00
59767;BME280;46248;58.364;25.582;2022-12-28T15:33:49;100198.91;;;-2.06;100.00
59767;BME280;46248;58.364;25.582;2022-12-28T15:37:10;100221.09;;;-1.94;100.00
59767;BME280;46248;58.364;25.582;2022-12-28T15:40:33;100218.50;;;-1.91;100.00
59767;BME280;46248;58.364;25.582;2022-12-28T15:43:59;100221.91;;;-1.86;100.00
59767;BME280;46248;58.364;25.582;2022-12-28T15:47:21;100218.47;;;-1.85;100.00
59767;BME280;46248;58.364;25.582;2022-12-28T15:50:43;100210.78;;;-1.88;100.00
59767;BME280;46248;58.364;25.582;2022-12-28T15:54:05;100209.06;;;-1.78;100.00
59767;BME280;46248;58.364;25.582;2022-12-28T15:57:29;100215.84;;;-1.73;100.00
59767;BME280;46248;58.364;25.582;2022-12-28T16:00:51;100221.81;;;-1.69;100.00
59767;BME280;46248;58.364;25.582;2022-12-28T16:04:13;100214.97;;;-1.69;100.00
59767;BME280;46248;58.364;25.582;2022-12-28T16:07:35;100222.63;;;-1.63;100.00
59767;BME280;46248;58.364;25.582;2022-12-28T16:11:06;100218.31;;;-1.59;100.00
59767;BME280;46248;58.364;25.582;2022-12-28T16:14:29;100200.38;;;-1.64;100.00
59767;BME280;46248;58.364;25.582;2022-12-28T16:17:51;100222.56;;;-1.52;100.00
59767;BME280;46248;58.364;25.582;2022-12-28T16:21:16;100228.50;;;-1.47;100.00
59767;BME280;46248;58.364;25.582;2022-12-28T16:24:38;100211.41;;;-1.48;100.00
59767;BME280;46248;58.364;25.582;2022-12-28T16:28:00;100230.16;;;-1.35;100.00
59767;BME280;46248;58.364;25.582;2022-12-28T16:31:25;100233.53;;;-1.31;100.00
59767;BME280;46248;58.364;25.582;2022-12-28T16:34:48;100222.41;;;-1.29;100.00
59767;BME280;46248;58.364;25.582;2022-12-28T16:38:10;100221.50;;;-1.23;100.00
59767;BME280;46248;58.364;25.582;2022-12-28T16:41:32;100208.69;;;-1.31;100.00
59767;BME280;46248;58.364;25.582;2022-12-28T16:44:59;100221.44;;;-1.16;100.00
59767;BME280;46248;58.364;25.582;2022-12-28T16:48:23;100216.31;;;-1.19;100.00
59767;BME280;46248;58.364;25.582;2022-12-28T16:51:45;100222.28;;;-1.12;100.00
59767;BME280;46248;58.364;25.582;2022-12-28T16:55:08;100234.16;;;-1.03;100.00
59767;BME280;46248;58.364;25.582;2022-12-28T16:58:30;100211.91;;;-1.04;100.00
59767;BME280;46248;58.364;25.582;2022-12-28T17:01:55;100218.69;;;-0.97;100.00
59767;BME280;46248;58.364;25.582;2022-12-28T17:05:20;100220.38;;;-0.93;100.00
59767;BME280;46248;58.364;25.582;2022-12-28T17:08:44;100204.13;;;-0.94;100.00
59767;BME280;46248;58.364;25.582;2022-12-28T17:12:06;100206.69;;;-0.94;100.00
59767;BME280;46248;58.364;25.582;2022-12-28T17:15:28;100216.91;;;-0.87;100.00
59767;BME280;46248;58.364;25.582;2022-12-28T17:18:50;100213.47;;;-0.88;100.00
59767;BME280;46248;58.364;25.582;2022-12-28T17:22:13;100197.22;;;-0.92;100.00
59767;BME280;46248;58.364;25.582;2022-12-28T17:25:35;100215.13;;;-0.82;100.00
59767;BME280;46248;58.364;25.582;2022-12-28T17:28:57;100204.88;;;-0.85;100.00
59767;BME280;46248;58.364;25.582;2022-12-28T17:32:19;100201.41;;;-0.80;100.00
59767;BME280;46248;58.364;25.582;2022-12-28T17:35:41;100203.09;;;-0.77;100.00
59767;BME280;46248;58.364;25.582;2022-12-28T17:39:04;100201.34;;;-0.74;100.00
59767;BME280;46248;58.364;25.582;2022-12-28T17:42:27;100186.84;;;-0.82;100.00
59767;BME280;46248;58.364;25.582;2022-12-28T17:45:49;100201.34;;;-0.72;100.00
59767;BME280;46248;58.364;25.582;2022-12-28T17:49:12;100196.16;;;-0.71;100.00